sensor_id;sensor_type;location;lat;lon;timestamp;pressure;altitude;pressure_sealevel;temperature;humidity
34921;BME280;21128;50.016;20.002;2023-11-21T00:01:13;97978.77;;;7.79;100.00
34921;BME280;21128;50.016;20.002;2023-11-21T00:03:59;97977.64;;;7.78;100.00
34921;BME280;21128;50.016;20.002;2023-11-21T00:06:51;97979.30;;;7.77;100.00
34921;BME280;21128;50.016;20.002;2023-11-21T00:09:37;97982.23;;;7.76;100.00
34921;BME280;21128;50.016;20.002;2023-11-21T00:12:22;97982.70;;;7.73;100.00
34921;BME280;21128;50.016;20.002;2023-11-21T00:15:10;97987.35;;;7.71;100.00
34921;BME280;21128;50.016;20.002;2023-11-21T00:17:59;97988.59;;;7.71;100.00
34921;BME280;21128;50.016;20.002;2023-11-21T00:20:45;97991.30;;;7.70;100.00
34921;BME280;21128;50.016;20.002;2023-11-21T00:23:30;97992.08;;;7.70;100.00
34921;BME280;21128;50.016;20.002;2023-11-21T00:26:21;97993.73;;;7.69;100.00
34921;BME280;21128;50.016;20.002;2023-11-21T00:29:07;97998.90;;;7.66;100.00
34921;BME280;21128;50.016;20.002;2023-11-21T00:31:59;98004.63;;;7.66;100.00
34921;BME280;21128;50.016;20.002;2023-11-21T00:34:51;98002.61;;;7.65;100.00
34921;BME280;21128;50.016;20.002;2023-11-21T00:37:44;98003.83;;;7.65;100.00
34921;BME280;21128;50.016;20.002;2023-11-21T00:40:30;98001.48;;;7.64;100.00
34921;BME280;21128;50.016;20.002;2023-11-21T00:43:16;98009.16;;;7.64;100.00
34921;BME280;21128;50.016;20.002;2023-11-21T00:46:05;98009.29;;;7.64;100.00
34921;BME280;21128;50.016;20.002;2023-11-21T00:48:55;98009.88;;;7.66;100.00
34921;BME280;21128;50.016;20.002;2023-11-21T00:51:40;98010.81;;;7.67;100.00
34921;BME280;21128;50.016;20.002;2023-11-21T00:54:27;98007.30;;;7.67;100.00
34921;BME280;21128;50.016;20.002;2023-11-21T00:57:12;98002.10;;;7.69;100.00
34921;BME280;21128;50.016;20.002;2023-11-21T00:59:58;98002.73;;;7.69;100.00
34921;BME280;21128;50.016;20.002;2023-11-21T01:02:44;97998.02;;;7.69;100.00
34921;BME280;21128;50.016;20.002;2023-11-21T01:05:30;97999.86;;;7.70;100.00
34921;BME280;21128;50.016;20.002;2023-11-21T01:08:15;98001.04;;;7.71;100.00
34921;BME280;21128;50.016;20.002;2023-11-21T01:11:10;97999.89;;;7.70;100.00
34921;BME280;21128;50.016;20.002;2023-11-21T01:13:57;98004.24;;;7.70;100.00
34921;BME280;21128;50.016;20.002;2023-11-21T01:16:45;98010.27;;;7.69;100.00
34921;BME280;21128;50.016;20.002;2023-11-21T01:19:30;98002.80;;;7.69;100.00
34921;BME280;21128;50.016;20.002;2023-11-21T01:22:16;97998.30;;;7.68;100.00
34921;BME280;21128;50.016;20.002;2023-11-21T01:25:09;98003.54;;;7.68;100.00
34921;BME280;21128;50.016;20.002;2023-11-21T01:27:55;97996.77;;;7.68;100.00
34921;BME280;21128;50.016;20.002;2023-11-21T01:30:41;97998.70;;;7.68;100.00
34921;BME280;21128;50.016;20.002;2023-11-21T01:33:40;97998.20;;;7.68;100.00
34921;BME280;21128;50.016;20.002;2023-11-21T01:36:33;97997.52;;;7.68;100.00
34921;BME280;21128;50.016;20.002;2023-11-21T01:39:19;97997.81;;;7.68;100.00
34921;BME280;21128;50.016;20.002;2023-11-21T01:42:09;97998.07;;;7.67;100.00
34921;BME280;21128;50.016;20.002;2023-11-21T01:44:54;98000.62;;;7.68;100.00
34921;BME280;21128;50.016;20.002;2023-11-21T01:47:41;98004.91;;;7.69;100.00
34921;BME280;21128;50.016;20.002;2023-11-21T01:50:28;98006.09;;;7.69;100.00
34921;BME280;21128;50.016;20.002;2023-11-21T01:53:13;98003.78;;;7.70;100.00
34921;BME280;21128;50.016;20.002;2023-11-21T01:55:59;98002.92;;;7.69;100.00
34921;BME280;21128;50.016;20.002;2023-11-21T01:58:45;97993.86;;;7.69;100.00
34921;BME280;21128;50.016;20.002;2023-11-21T02:01:31;97998.15;;;7.68;100.00
34921;BME280;21128;50.016;20.002;2023-11-21T02:04:17;97996.40;;;7.66;100.00
34921;BME280;21128;50.016;20.002;2023-11-21T02:07:03;97996.45;;;7.66;100.00
34921;BME280;21128;50.016;20.002;2023-11-21T02:09:52;97993.33;;;7.63;100.00
34921;BME280;21128;50.016;20.002;2023-11-21T02:12:37;97994.57;;;7.63;100.00
34921;BME280;21128;50.016;20.002;2023-11-21T02:15:24;97999.80;;;7.63;100.00
34921;BME280;21128;50.016;20.002;2023-11-21T02:18:13;97995.61;;;7.63;100.00
34921;BME280;21128;50.016;20.002;2023-11-21T02:21:00;97993.02;;;7.63;100.00
34921;BME280;21128;50.016;20.002;2023-11-21T02:23:48;97996.27;;;7.63;100.00
34921;BME280;21128;50.016;20.002;2023-11-21T02:26:39;97999.25;;;7.63;100.00
34921;BME280;21128;50.016;20.002;2023-11-21T02:29:26;98001.17;;;7.63;100.00
34921;BME280;21128;50.016;20.002;2023-11-21T02:32:13;98005.63;;;7.64;100.00
34921;BME280;21128;50.016;20.002;2023-11-21T02:35:08;98003.30;;;7.65;100.00
34921;BME280;21128;50.016;20.002;2023-11-21T02:37:54;98003.85;;;7.65;100.00
34921;BME280;21128;50.016;20.002;2023-11-21T02:40:40;98001.98;;;7.64;100.00
34921;BME280;21128;50.016;20.002;2023-11-21T02:43:25;97998.73;;;7.63;100.00
34921;BME280;21128;50.016;20.002;2023-11-21T02:46:11;98002.61;;;7.63;100.00
34921;BME280;21128;50.016;20.002;2023-11-21T02:48:56;98007.29;;;7.63;100.00
34921;BME280;21128;50.016;20.002;2023-11-21T02:51:43;98006.48;;;7.62;100.00
34921;BME280;21128;50.016;20.002;2023-11-21T02:54:29;98002.75;;;7.63;100.00
34921;BME280;21128;50.016;20.002;2023-11-21T02:57:14;98003.27;;;7.63;100.00
34921;BME280;21128;50.016;20.002;2023-11-21T03:00:00;98004.55;;;7.63;100.00
34921;BME280;21128;50.016;20.002;2023-11-21T03:02:46;98008.83;;;7.64;100.00
34921;BME280;21128;50.016;20.002;2023-11-21T03:05:33;98014.09;;;7.63;100.00
34921;BME280;21128;50.016;20.002;2023-11-21T03:08:20;98017.44;;;7.63;100.00
34921;BME280;21128;50.016;20.002;2023-11-21T03:11:06;98016.81;;;7.62;100.00
34921;BME280;21128;50.016;20.002;2023-11-21T03:13:52;98017.20;;;7.61;100.00
34921;BME280;21128;50.016;20.002;2023-11-21T03:16:37;98018.02;;;7.60;100.00
34921;BME280;21128;50.016;20.002;2023-11-21T03:19:23;98021.77;;;7.59;100.00
34921;BME280;21128;50.016;20.002;2023-11-21T03:22:09;98024.77;;;7.59;100.00
34921;BME280;21128;50.016;20.002;2023-11-21T03:25:01;98022.86;;;7.59;100.00
34921;BME280;21128;50.016;20.002;2023-11-21T03:27:48;98020.61;;;7.59;100.00
34921;BME280;21128;50.016;20.002;2023-11-21T03:30:40;98016.79;;;7.59;100.00
34921;BME280;21128;50.016;20.002;2023-11-21T03:33:39;98020.34;;;7.58;100.00
34921;BME280;21128;50.016;20.002;2023-11-21T03:36:24;98018.61;;;7.58;100.00
34921;BME280;21128;50.016;20.002;2023-11-21T03:39:10;98023.34;;;7.58;100.00
34921;BME280;21128;50.016;20.002;2023-11-21T03:41:56;98024.05;;;7.57;100.00
34921;BME280;21128;50.016;20.002;2023-11-21T03:44:41;98027.55;;;7.57;100.00
34921;BME280;21128;50.016;20.002;2023-11-21T03:47:28;98038.11;;;7.56;100.00
34921;BME280;21128;50.016;20.002;2023-11-21T03:50:14;98038.61;;;7.55;100.00
34921;BME280;21128;50.016;20.002;2023-11-21T03:52:59;98034.27;;;7.53;100.00
34921;BME280;21128;50.016;20.002;2023-11-21T03:55:44;98038.13;;;7.52;100.00
34921;BME280;21128;50.016;20.002;2023-11-21T03:58:30;98034.44;;;7.52;100.00
34921;BME280;21128;50.016;20.002;2023-11-21T04:01:22;98034.70;;;7.52;100.00
34921;BME280;21128;50.016;20.002;2023-11-21T04:04:08;98035.05;;;7.52;100.00
34921;BME280;21128;50.016;20.002;2023-11-21T04:06:53;98034.26;;;7.51;100.00
34921;BME280;21128;50.016;20.002;2023-11-21T04:09:40;98033.55;;;7.49;100.00
34921;BME280;21128;50.016;20.002;2023-11-21T04:12:26;98038.45;;;7.49;100.00
34921;BME280;21128;50.016;20.002;2023-11-21T04:15:12;98038.98;;;7.49;100.00
34921;BME280;21128;50.016;20.002;2023-11-21T04:17:58;98039.77;;;7.48;100.00
34921;BME280;21128;50.016;20.002;2023-11-21T04:20:44;98038.27;;;7.47;100.00
34921;BME280;21128;50.016;20.002;2023-11-21T04:23:35;98039.86;;;7.47;100.00
34921;BME280;21128;50.016;20.002;2023-11-21T04:26:21;98039.73;;;7.46;100.00
34921;BME280;21128;50.016;20.002;2023-11-21T04:29:09;98041.89;;;7.46;100.00
34921;BME280;21128;50.016;20.002;2023-11-21T04:32:01;98039.73;;;7.46;100.00
34921;BME280;21128;50.016;20.002;2023-11-21T04:34:53;98037.34;;;7.46;100.00
34921;BME280;21128;50.016;20.002;2023-11-21T04:37:39;98037.34;;;7.46;100.00
34921;BME280;21128;50.016;20.002;2023-11-21T04:40:27;98044.33;;;7.45;100.00
34921;BME280;21128;50.016;20.002;2023-11-21T04:43:12;98047.70;;;7.45;100.00
34921;BME280;21128;50.016;20.002;2023-11-21T04:45:58;98051.02;;;7.45;100.00
34921;BME280;21128;50.016;20.002;2023-11-21T04:48:44;98055.65;;;7.44;100.00
34921;BME280;21128;50.016;20.002;2023-11-21T04:51:29;98058.77;;;7.42;100.00
34921;BME280;21128;50.016;20.002;2023-11-21T04:54:14;98055.75;;;7.41;100.00
34921;BME280;21128;50.016;20.002;2023-11-21T04:57:00;98058.66;;;7.41;100.00
34921;BME280;21128;50.016;20.002;2023-11-21T04:59:46;98062.36;;;7.39;100.00
34921;BME280;21128;50.016;20.002;2023-11-21T05:02:32;98060.59;;;7.37;100.00
34921;BME280;21128;50.016;20.002;2023-11-21T05:05:19;98062.05;;;7.37;100.00
34921;BME280;21128;50.016;20.002;2023-11-21T05:08:04;98060.84;;;7.35;100.00
34921;BME280;21128;50.016;20.002;2023-11-21T05:10:50;98061.19;;;7.33;100.00
34921;BME280;21128;50.016;20.002;2023-11-21T05:13:37;98068.14;;;7.31;100.00
34921;BME280;21128;50.016;20.002;2023-11-21T05:16:25;98071.91;;;7.26;100.00
34921;BME280;21128;50.016;20.002;2023-11-21T05:19:12;98073.98;;;7.23;100.00
34921;BME280;21128;50.016;20.002;2023-11-21T05:21:58;98076.40;;;7.21;100.00
34921;BME280;21128;50.016;20.002;2023-11-21T05:24:48;98074.64;;;7.19;100.00
34921;BME280;21128;50.016;20.002;2023-11-21T05:27:34;98079.30;;;7.18;100.00
34921;BME280;21128;50.016;20.002;2023-11-21T05:30:21;98084.40;;;7.17;100.00
34921;BME280;21128;50.016;20.002;2023-11-21T05:33:12;98086.64;;;7.18;100.00
34921;BME280;21128;50.016;20.002;2023-11-21T05:36:05;98089.61;;;7.17;100.00
34921;BME280;21128;50.016;20.002;2023-11-21T05:38:52;98093.33;;;7.17;100.00
34921;BME280;21128;50.016;20.002;2023-11-21T05:41:38;98096.33;;;7.16;100.00
34921;BME280;21128;50.016;20.002;2023-11-21T05:44:24;98098.67;;;7.16;100.00
34921;BME280;21128;50.016;20.002;2023-11-21T05:47:10;98103.98;;;7.15;100.00
34921;BME280;21128;50.016;20.002;2023-11-21T05:49:56;98109.16;;;7.13;100.00
34921;BME280;21128;50.016;20.002;2023-11-21T05:52:47;98114.30;;;7.12;100.00
34921;BME280;21128;50.016;20.002;2023-11-21T05:55:39;98118.38;;;7.11;100.00
34921;BME280;21128;50.016;20.002;2023-11-21T05:58:25;98118.48;;;7.10;100.00
34921;BME280;21128;50.016;20.002;2023-11-21T06:01:10;98121.14;;;7.08;100.00
34921;BME280;21128;50.016;20.002;2023-11-21T06:03:58;98125.27;;;7.06;100.00
34921;BME280;21128;50.016;20.002;2023-11-21T06:06:44;98126.08;;;7.05;100.00
34921;BME280;21128;50.016;20.002;2023-11-21T06:09:29;98128.94;;;7.04;100.00
34921;BME280;21128;50.016;20.002;2023-11-21T06:12:15;98132.06;;;7.04;100.00
34921;BME280;21128;50.016;20.002;2023-11-21T06:15:02;98136.35;;;7.05;100.00
34921;BME280;21128;50.016;20.002;2023-11-21T06:17:51;98134.02;;;7.05;100.00
34921;BME280;21128;50.016;20.002;2023-11-21T06:20:39;98140.45;;;7.06;100.00
34921;BME280;21128;50.016;20.002;2023-11-21T06:23:25;98139.87;;;7.04;100.00
34921;BME280;21128;50.016;20.002;2023-11-21T06:26:10;98138.55;;;7.03;100.00
34921;BME280;21128;50.016;20.002;2023-11-21T06:28:56;98137.13;;;7.04;100.00
34921;BME280;21128;50.016;20.002;2023-11-21T06:31:49;98139.13;;;7.05;100.00
34921;BME280;21128;50.016;20.002;2023-11-21T06:34:40;98139.95;;;7.05;100.00
34921;BME280;21128;50.016;20.002;2023-11-21T06:37:29;98145.64;;;7.07;100.00
34921;BME280;21128;50.016;20.002;2023-11-21T06:40:15;98144.48;;;7.08;100.00
34921;BME280;21128;50.016;20.002;2023-11-21T06:43:01;98152.33;;;7.10;100.00
34921;BME280;21128;50.016;20.002;2023-11-21T06:45:46;98157.17;;;7.12;100.00
34921;BME280;21128;50.016;20.002;2023-11-21T06:48:32;98158.36;;;7.14;100.00
34921;BME280;21128;50.016;20.002;2023-11-21T06:51:17;98163.65;;;7.17;100.00
34921;BME280;21128;50.016;20.002;2023-11-21T06:54:02;98161.58;;;7.19;100.00
34921;BME280;21128;50.016;20.002;2023-11-21T06:56:54;98166.09;;;7.21;100.00
34921;BME280;21128;50.016;20.002;2023-11-21T06:59:41;98163.81;;;7.21;100.00
34921;BME280;21128;50.016;20.002;2023-11-21T07:02:27;98163.86;;;7.21;100.00
34921;BME280;21128;50.016;20.002;2023-11-21T07:05:14;98166.99;;;7.21;100.00
34921;BME280;21128;50.016;20.002;2023-11-21T07:08:00;98167.47;;;7.21;100.00
34921;BME280;21128;50.016;20.002;2023-11-21T07:10:49;98170.16;;;7.22;100.00
34921;BME280;21128;50.016;20.002;2023-11-21T07:13:35;98172.43;;;7.24;100.00
34921;BME280;21128;50.016;20.002;2023-11-21T07:16:20;98171.05;;;7.24;100.00
34921;BME280;21128;50.016;20.002;2023-11-21T07:19:09;98179.50;;;7.25;100.00
34921;BME280;21128;50.016;20.002;2023-11-21T07:21:54;98177.66;;;7.24;100.00
34921;BME280;21128;50.016;20.002;2023-11-21T07:24:40;98181.10;;;7.25;100.00
34921;BME280;21128;50.016;20.002;2023-11-21T07:27:26;98175.79;;;7.26;100.00
34921;BME280;21128;50.016;20.002;2023-11-21T07:30:12;98179.11;;;7.27;100.00
34921;BME280;21128;50.016;20.002;2023-11-21T07:33:04;98180.81;;;7.28;100.00
34921;BME280;21128;50.016;20.002;2023-11-21T07:35:51;98185.05;;;7.27;100.00
34921;BME280;21128;50.016;20.002;2023-11-21T07:38:37;98187.94;;;7.28;100.00
34921;BME280;21128;50.016;20.002;2023-11-21T07:41:22;98190.61;;;7.27;100.00
34921;BME280;21128;50.016;20.002;2023-11-21T07:44:07;98195.69;;;7.27;100.00
34921;BME280;21128;50.016;20.002;2023-11-21T07:46:53;98197.05;;;7.27;100.00
34921;BME280;21128;50.016;20.002;2023-11-21T07:49:42;98195.94;;;7.28;100.00
34921;BME280;21128;50.016;20.002;2023-11-21T07:52:36;98199.69;;;7.29;100.00
34921;BME280;21128;50.016;20.002;2023-11-21T07:55:21;98197.88;;;7.26;100.00
34921;BME280;21128;50.016;20.002;2023-11-21T07:58:06;98194.77;;;7.28;100.00
34921;BME280;21128;50.016;20.002;2023-11-21T08:00:52;98197.89;;;7.30;100.00
34921;BME280;21128;50.016;20.002;2023-11-21T08:03:37;98193.55;;;7.29;100.00
34921;BME280;21128;50.016;20.002;2023-11-21T08:06:23;98194.39;;;7.30;100.00
34921;BME280;21128;50.016;20.002;2023-11-21T08:09:16;98196.38;;;7.31;100.00
34921;BME280;21128;50.016;20.002;2023-11-21T08:12:03;98198.77;;;7.31;100.00
34921;BME280;21128;50.016;20.002;2023-11-21T08:14:50;98203.17;;;7.29;100.00
34921;BME280;21128;50.016;20.002;2023-11-21T08:17:35;98205.45;;;7.29;100.00
34921;BME280;21128;50.016;20.002;2023-11-21T08:20:21;98207.84;;;7.31;100.00
34921;BME280;21128;50.016;20.002;2023-11-21T08:23:08;98207.23;;;7.30;100.00
34921;BME280;21128;50.016;20.002;2023-11-21T08:25:54;98208.48;;;7.30;100.00
34921;BME280;21128;50.016;20.002;2023-11-21T08:28:39;98209.23;;;7.29;100.00
34921;BME280;21128;50.016;20.002;2023-11-21T08:31:31;98212.00;;;7.28;100.00
34921;BME280;21128;50.016;20.002;2023-11-21T08:34:30;98211.95;;;7.26;100.00
34921;BME280;21128;50.016;20.002;2023-11-21T08:37:16;98214.02;;;7.26;100.00
34921;BME280;21128;50.016;20.002;2023-11-21T08:40:02;98215.58;;;7.29;100.00
34921;BME280;21128;50.016;20.002;2023-11-21T08:42:47;98220.92;;;7.31;100.00
34921;BME280;21128;50.016;20.002;2023-11-21T08:45:34;98220.25;;;7.33;100.00
34921;BME280;21128;50.016;20.002;2023-11-21T08:48:19;98221.95;;;7.31;100.00
34921;BME280;21128;50.016;20.002;2023-11-21T08:51:05;98224.38;;;7.32;100.00
34921;BME280;21128;50.016;20.002;2023-11-21T08:53:51;98224.54;;;7.34;100.00
34921;BME280;21128;50.016;20.002;2023-11-21T08:56:36;98229.45;;;7.35;100.00
34921;BME280;21128;50.016;20.002;2023-11-21T08:59:28;98227.64;;;7.36;100.00
34921;BME280;21128;50.016;20.002;2023-11-21T09:02:14;98227.49;;;7.38;100.00
34921;BME280;21128;50.016;20.002;2023-11-21T09:05:00;98225.89;;;7.42;100.00
34921;BME280;21128;50.016;20.002;2023-11-21T09:07:48;98231.35;;;7.47;100.00
34921;BME280;21128;50.016;20.002;2023-11-21T09:10:34;98227.00;;;7.47;100.00
34921;BME280;21128;50.016;20.002;2023-11-21T09:13:24;98222.17;;;7.48;100.00
34921;BME280;21128;50.016;20.002;2023-11-21T09:16:11;98225.70;;;7.50;100.00
34921;BME280;21128;50.016;20.002;2023-11-21T09:18:56;98227.13;;;7.53;100.00
34921;BME280;21128;50.016;20.002;2023-11-21T09:21:42;98225.83;;;7.54;100.00
34921;BME280;21128;50.016;20.002;2023-11-21T09:24:27;98225.56;;;7.57;100.00
34921;BME280;21128;50.016;20.002;2023-11-21T09:27:13;98221.16;;;7.58;100.00
34921;BME280;21128;50.016;20.002;2023-11-21T09:29:58;98222.28;;;7.60;100.00
34921;BME280;21128;50.016;20.002;2023-11-21T09:32:44;98219.92;;;7.63;100.00
34921;BME280;21128;50.016;20.002;2023-11-21T09:35:42;98216.70;;;7.67;100.00
34921;BME280;21128;50.016;20.002;2023-11-21T09:38:35;98220.23;;;7.70;100.00
34921;BME280;21128;50.016;20.002;2023-11-21T09:41:51;98223.84;;;7.72;100.00
34921;BME280;21128;50.016;20.002;2023-11-21T09:44:54;98222.30;;;7.76;100.00
34921;BME280;21128;50.016;20.002;2023-11-21T09:47:44;98220.61;;;7.77;100.00
34921;BME280;21128;50.016;20.002;2023-11-21T09:50:31;98226.84;;;7.78;100.00
34921;BME280;21128;50.016;20.002;2023-11-21T09:53:20;98228.27;;;7.79;100.00
34921;BME280;21128;50.016;20.002;2023-11-21T09:56:07;98228.08;;;7.80;100.00
34921;BME280;21128;50.016;20.002;2023-11-21T09:59:03;98229.45;;;7.80;100.00
34921;BME280;21128;50.016;20.002;2023-11-21T10:01:52;98229.48;;;7.81;100.00
34921;BME280;21128;50.016;20.002;2023-11-21T10:04:37;98231.67;;;7.80;100.00
34921;BME280;21128;50.016;20.002;2023-11-21T10:07:23;98234.10;;;7.78;100.00
34921;BME280;21128;50.016;20.002;2023-11-21T10:10:08;98234.86;;;7.74;100.00
34921;BME280;21128;50.016;20.002;2023-11-21T10:13:01;98235.77;;;7.74;100.00
34921;BME280;21128;50.016;20.002;2023-11-21T10:15:52;98233.91;;;7.77;100.00
34921;BME280;21128;50.016;20.002;2023-11-21T10:18:38;98237.40;;;7.84;100.00
34921;BME280;21128;50.016;20.002;2023-11-21T10:21:25;98237.48;;;7.87;100.00
34921;BME280;21128;50.016;20.002;2023-11-21T10:24:11;98235.30;;;7.90;100.00
34921;BME280;21128;50.016;20.002;2023-11-21T10:26:57;98233.01;;;7.96;100.00
34921;BME280;21128;50.016;20.002;2023-11-21T10:29:43;98234.05;;;8.02;100.00
34921;BME280;21128;50.016;20.002;2023-11-21T10:32:34;98231.55;;;8.06;100.00
34921;BME280;21128;50.016;20.002;2023-11-21T10:35:19;98234.19;;;8.15;100.00
34921;BME280;21128;50.016;20.002;2023-11-21T10:38:05;98234.80;;;8.20;100.00
34921;BME280;21128;50.016;20.002;2023-11-21T10:40:57;98225.84;;;8.27;100.00
34921;BME280;21128;50.016;20.002;2023-11-21T10:43:43;98226.80;;;8.37;100.00
34921;BME280;21128;50.016;20.002;2023-11-21T10:46:29;98228.74;;;8.42;100.00
34921;BME280;21128;50.016;20.002;2023-11-21T10:49:20;98226.70;;;8.36;100.00
34921;BME280;21128;50.016;20.002;2023-11-21T10:52:05;98231.26;;;8.28;100.00
34921;BME280;21128;50.016;20.002;2023-11-21T10:54:50;98227.98;;;8.24;100.00
34921;BME280;21128;50.016;20.002;2023-11-21T10:57:36;98235.01;;;8.16;100.00
34921;BME280;21128;50.016;20.002;2023-11-21T11:00:22;98234.45;;;8.14;100.00
34921;BME280;21128;50.016;20.002;2023-11-21T11:03:09;98239.58;;;8.15;100.00
34921;BME280;21128;50.016;20.002;2023-11-21T11:06:00;98236.35;;;8.13;100.00
34921;BME280;21128;50.016;20.002;2023-11-21T11:09:02;98233.74;;;8.15;100.00
34921;BME280;21128;50.016;20.002;2023-11-21T11:11:48;98234.43;;;8.12;100.00
34921;BME280;21128;50.016;20.002;2023-11-21T11:14:34;98232.86;;;8.09;100.00
34921;BME280;21128;50.016;20.002;2023-11-21T11:17:20;98236.29;;;8.10;100.00
34921;BME280;21128;50.016;20.002;2023-11-21T11:20:06;98234.85;;;8.06;100.00
34921;BME280;21128;50.016;20.002;2023-11-21T11:23:22;98231.85;;;8.07;100.00
34921;BME280;21128;50.016;20.002;2023-11-21T11:26:40;98228.11;;;8.04;100.00
34921;BME280;21128;50.016;20.002;2023-11-21T11:29:49;98232.38;;;8.07;100.00
34921;BME280;21128;50.016;20.002;2023-11-21T11:33:07;98235.89;;;8.08;100.00
34921;BME280;21128;50.016;20.002;2023-11-21T11:36:26;98234.06;;;8.08;100.00
34921;BME280;21128;50.016;20.002;2023-11-21T11:39:32;98233.92;;;8.07;100.00
34921;BME280;21128;50.016;20.002;2023-11-21T11:42:21;98237.86;;;8.08;100.00
34921;BME280;21128;50.016;20.002;2023-11-21T11:45:18;98234.73;;;8.08;100.00
34921;BME280;21128;50.016;20.002;2023-11-21T11:48:07;98239.17;;;8.10;100.00
34921;BME280;21128;50.016;20.002;2023-11-21T11:51:07;98240.63;;;8.14;100.00
34921;BME280;21128;50.016;20.002;2023-11-21T11:53:55;98244.22;;;8.16;100.00
34921;BME280;21128;50.016;20.002;2023-11-21T11:56:41;98244.93;;;8.16;100.00
34921;BME280;21128;50.016;20.002;2023-11-21T11:59:27;98248.19;;;8.21;100.00
34921;BME280;21128;50.016;20.002;2023-11-21T12:02:13;98252.66;;;8.23;100.00
34921;BME280;21128;50.016;20.002;2023-11-21T12:04:59;98254.02;;;8.22;100.00
34921;BME280;21128;50.016;20.002;2023-11-21T12:07:51;98253.20;;;8.23;100.00
34921;BME280;21128;50.016;20.002;2023-11-21T12:10:40;98254.29;;;8.29;100.00
34921;BME280;21128;50.016;20.002;2023-11-21T12:13:28;98248.67;;;8.34;100.00
34921;BME280;21128;50.016;20.002;2023-11-21T12:16:27;98248.24;;;8.39;100.00
34921;BME280;21128;50.016;20.002;2023-11-21T12:19:13;98251.73;;;8.45;100.00
34921;BME280;21128;50.016;20.002;2023-11-21T12:21:59;98252.96;;;8.52;100.00
34921;BME280;21128;50.016;20.002;2023-11-21T12:24:44;98248.58;;;8.60;100.00
34921;BME280;21128;50.016;20.002;2023-11-21T12:27:30;98247.34;;;8.64;100.00
34921;BME280;21128;50.016;20.002;2023-11-21T12:30:26;98248.19;;;8.68;100.00
34921;BME280;21128;50.016;20.002;2023-11-21T12:33:21;98252.11;;;8.70;100.00
34921;BME280;21128;50.016;20.002;2023-11-21T12:36:14;98252.23;;;8.69;100.00
34921;BME280;21128;50.016;20.002;2023-11-21T12:39:00;98253.15;;;8.67;100.00
34921;BME280;21128;50.016;20.002;2023-11-21T12:41:46;98250.31;;;8.64;100.00
34921;BME280;21128;50.016;20.002;2023-11-21T12:44:32;98249.07;;;8.64;100.00
34921;BME280;21128;50.016;20.002;2023-11-21T12:47:18;98250.58;;;8.64;100.00
34921;BME280;21128;50.016;20.002;2023-11-21T12:50:04;98246.40;;;8.62;100.00
34921;BME280;21128;50.016;20.002;2023-11-21T12:52:52;98247.27;;;8.64;100.00
34921;BME280;21128;50.016;20.002;2023-11-21T12:55:39;98249.79;;;8.63;100.00
34921;BME280;21128;50.016;20.002;2023-11-21T12:58:25;98248.98;;;8.61;100.00
34921;BME280;21128;50.016;20.002;2023-11-21T13:01:13;98253.29;;;8.60;100.00
34921;BME280;21128;50.016;20.002;2023-11-21T13:04:07;98257.52;;;8.58;100.00
34921;BME280;21128;50.016;20.002;2023-11-21T13:07:03;98257.25;;;8.53;100.00
34921;BME280;21128;50.016;20.002;2023-11-21T13:09:52;98258.70;;;8.51;100.00
34921;BME280;21128;50.016;20.002;2023-11-21T13:12:47;98260.23;;;8.51;100.00
34921;BME280;21128;50.016;20.002;2023-11-21T13:15:33;98262.66;;;8.51;100.00
34921;BME280;21128;50.016;20.002;2023-11-21T13:18:27;98259.77;;;8.46;100.00
34921;BME280;21128;50.016;20.002;2023-11-21T13:21:13;98260.65;;;8.43;100.00
34921;BME280;21128;50.016;20.002;2023-11-21T13:23:59;98260.16;;;8.41;100.00
34921;BME280;21128;50.016;20.002;2023-11-21T13:26:45;98263.04;;;8.39;100.00
34921;BME280;21128;50.016;20.002;2023-11-21T13:29:32;98264.90;;;8.38;100.00
34921;BME280;21128;50.016;20.002;2023-11-21T13:32:24;98276.38;;;8.41;100.00
34921;BME280;21128;50.016;20.002;2023-11-21T13:35:24;98277.86;;;8.39;100.00
34921;BME280;21128;50.016;20.002;2023-11-21T13:38:18;98280.86;;;8.37;100.00
34921;BME280;21128;50.016;20.002;2023-11-21T13:41:08;98278.83;;;8.37;100.00
34921;BME280;21128;50.016;20.002;2023-11-21T13:43:56;98280.58;;;8.41;100.00
34921;BME280;21128;50.016;20.002;2023-11-21T13:46:57;98280.41;;;8.44;100.00
34921;BME280;21128;50.016;20.002;2023-11-21T13:49:44;98285.09;;;8.44;100.00
34921;BME280;21128;50.016;20.002;2023-11-21T13:52:29;98290.83;;;8.43;100.00
34921;BME280;21128;50.016;20.002;2023-11-21T13:55:19;98284.05;;;8.39;100.00
34921;BME280;21128;50.016;20.002;2023-11-21T13:58:05;98285.58;;;8.36;100.00
34921;BME280;21128;50.016;20.002;2023-11-21T14:01:01;98289.38;;;8.30;100.00
34921;BME280;21128;50.016;20.002;2023-11-21T14:03:51;98291.30;;;8.22;100.00
34921;BME280;21128;50.016;20.002;2023-11-21T14:06:46;98296.24;;;8.14;100.00
34921;BME280;21128;50.016;20.002;2023-11-21T14:09:37;98293.47;;;8.06;100.00
34921;BME280;21128;50.016;20.002;2023-11-21T14:12:28;98296.27;;;8.01;100.00
34921;BME280;21128;50.016;20.002;2023-11-21T14:15:14;98296.48;;;7.96;100.00
34921;BME280;21128;50.016;20.002;2023-11-21T14:18:04;98294.98;;;7.94;100.00
34921;BME280;21128;50.016;20.002;2023-11-21T14:20:56;98298.73;;;7.91;100.00
34921;BME280;21128;50.016;20.002;2023-11-21T14:23:42;98305.27;;;7.88;100.00
34921;BME280;21128;50.016;20.002;2023-11-21T14:26:28;98302.06;;;7.83;100.00
34921;BME280;21128;50.016;20.002;2023-11-21T14:29:16;98303.72;;;7.80;100.00
34921;BME280;21128;50.016;20.002;2023-11-21T14:32:11;98302.95;;;7.77;100.00
34921;BME280;21128;50.016;20.002;2023-11-21T14:35:10;98307.19;;;7.72;100.00
34921;BME280;21128;50.016;20.002;2023-11-21T14:37:56;98307.69;;;7.69;100.00
34921;BME280;21128;50.016;20.002;2023-11-21T14:40:43;98316.77;;;7.65;100.00